sensor_id;sensor_type;location;lat;lon;timestamp;temperature;humidity
72646;DHT22;60687;53.876;10.674;2024-03-22T00:00:44;8.40;99.90
72646;DHT22;60687;53.876;10.674;2024-03-22T00:10:49;8.40;99.90
72646;DHT22;60687;53.876;10.674;2024-03-22T00:20:51;8.40;99.90
72646;DHT22;60687;53.876;10.674;2024-03-22T00:30:55;8.40;99.90
72646;DHT22;60687;53.876;10.674;2024-03-22T00:40:57;8.40;99.90
72646;DHT22;60687;53.876;10.674;2024-03-22T00:51:01;8.40;99.90
72646;DHT22;60687;53.876;10.674;2024-03-22T01:01:03;8.40;99.90
72646;DHT22;60687;53.876;10.674;2024-03-22T01:11:07;8.50;99.90
72646;DHT22;60687;53.876;10.674;2024-03-22T01:21:10;8.50;99.90
72646;DHT22;60687;53.876;10.674;2024-03-22T01:31:14;8.50;99.90
72646;DHT22;60687;53.876;10.674;2024-03-22T01:41:17;8.60;99.90
72646;DHT22;60687;53.876;10.674;2024-03-22T01:51:20;8.60;99.90
72646;DHT22;60687;53.876;10.674;2024-03-22T02:01:23;8.60;99.90
72646;DHT22;60687;53.876;10.674;2024-03-22T02:11:28;8.70;99.90
72646;DHT22;60687;53.876;10.674;2024-03-22T02:21:31;8.70;99.90
72646;DHT22;60687;53.876;10.674;2024-03-22T02:31:35;8.70;99.90
72646;DHT22;60687;53.876;10.674;2024-03-22T02:41:38;8.80;99.90
72646;DHT22;60687;53.876;10.674;2024-03-22T02:51:41;8.80;99.90
72646;DHT22;60687;53.876;10.674;2024-03-22T03:01:44;8.80;99.90
72646;DHT22;60687;53.876;10.674;2024-03-22T03:11:47;8.80;99.90
72646;DHT22;60687;53.876;10.674;2024-03-22T03:21:50;8.80;99.90
72646;DHT22;60687;53.876;10.674;2024-03-22T03:31:54;8.80;99.90
72646;DHT22;60687;53.876;10.674;2024-03-22T03:41:56;8.90;99.90
72646;DHT22;60687;53.876;10.674;2024-03-22T03:52:00;8.90;99.90
72646;DHT22;60687;53.876;10.674;2024-03-22T04:02:02;8.90;99.90
72646;DHT22;60687;53.876;10.674;2024-03-22T04:12:07;9.00;99.90
72646;DHT22;60687;53.876;10.674;2024-03-22T04:22:11;9.00;99.90
72646;DHT22;60687;53.876;10.674;2024-03-22T04:32:15;9.00;99.90
72646;DHT22;60687;53.876;10.674;2024-03-22T04:42:17;9.10;99.90
72646;DHT22;60687;53.876;10.674;2024-03-22T04:52:20;9.10;99.90
72646;DHT22;60687;53.876;10.674;2024-03-22T05:02:23;9.20;99.90
72646;DHT22;60687;53.876;10.674;2024-03-22T05:12:26;9.20;99.90
72646;DHT22;60687;53.876;10.674;2024-03-22T05:22:29;9.30;99.90
72646;DHT22;60687;53.876;10.674;2024-03-22T05:32:32;9.30;99.90
72646;DHT22;60687;53.876;10.674;2024-03-22T05:42:35;9.40;99.90
72646;DHT22;60687;53.876;10.674;2024-03-22T05:52:38;9.40;99.90
72646;DHT22;60687;53.876;10.674;2024-03-22T06:02:40;9.50;99.90
72646;DHT22;60687;53.876;10.674;2024-03-22T06:12:44;9.50;99.90
72646;DHT22;60687;53.876;10.674;2024-03-22T06:22:48;9.50;99.90
72646;DHT22;60687;53.876;10.674;2024-03-22T06:32:51;9.60;99.90
72646;DHT22;60687;53.876;10.674;2024-03-22T06:42:54;9.70;99.90
72646;DHT22;60687;53.876;10.674;2024-03-22T06:52:57;9.80;99.90
72646;DHT22;60687;53.876;10.674;2024-03-22T07:03:01;9.80;99.90
72646;DHT22;60687;53.876;10.674;2024-03-22T07:13:06;9.90;99.90
72646;DHT22;60687;53.876;10.674;2024-03-22T07:23:09;10.00;99.90
72646;DHT22;60687;53.876;10.674;2024-03-22T07:33:13;10.10;99.90
72646;DHT22;60687;53.876;10.674;2024-03-22T07:43:17;10.20;99.90
72646;DHT22;60687;53.876;10.674;2024-03-22T07:53:21;10.40;99.90
72646;DHT22;60687;53.876;10.674;2024-03-22T08:03:23;10.50;99.90
72646;DHT22;60687;53.876;10.674;2024-03-22T08:13:27;10.60;99.90
72646;DHT22;60687;53.876;10.674;2024-03-22T08:23:30;10.70;99.90
72646;DHT22;60687;53.876;10.674;2024-03-22T08:33:34;10.80;99.90
72646;DHT22;60687;53.876;10.674;2024-03-22T08:43:36;10.90;99.90
72646;DHT22;60687;53.876;10.674;2024-03-22T08:53:40;10.90;99.90
72646;DHT22;60687;53.876;10.674;2024-03-22T09:03:43;10.90;99.90
72646;DHT22;60687;53.876;10.674;2024-03-22T09:13:51;11.00;99.90
72646;DHT22;60687;53.876;10.674;2024-03-22T09:23:53;11.00;99.90
72646;DHT22;60687;53.876;10.674;2024-03-22T09:33:57;11.00;99.90
72646;DHT22;60687;53.876;10.674;2024-03-22T09:44:00;11.00;99.90
72646;DHT22;60687;53.876;10.674;2024-03-22T09:54:07;11.00;99.90
72646;DHT22;60687;53.876;10.674;2024-03-22T10:04:11;11.00;99.90
72646;DHT22;60687;53.876;10.674;2024-03-22T10:14:16;11.00;99.90
72646;DHT22;60687;53.876;10.674;2024-03-22T10:24:18;11.00;99.90
72646;DHT22;60687;53.876;10.674;2024-03-22T10:34:24;11.00;99.90
72646;DHT22;60687;53.876;10.674;2024-03-22T10:44:26;11.10;99.90
72646;DHT22;60687;53.876;10.674;2024-03-22T10:54:34;11.10;99.90
72646;DHT22;60687;53.876;10.674;2024-03-22T11:04:37;11.00;99.90
72646;DHT22;60687;53.876;10.674;2024-03-22T11:14:41;11.00;99.90
72646;DHT22;60687;53.876;10.674;2024-03-22T11:24:43;11.00;99.90
72646;DHT22;60687;53.876;10.674;2024-03-22T11:34:48;11.00;99.90
72646;DHT22;60687;53.876;10.674;2024-03-22T11:44:50;11.00;99.90
72646;DHT22;60687;53.876;10.674;2024-03-22T11:54:56;11.00;99.90
72646;DHT22;60687;53.876;10.674;2024-03-22T12:05:01;11.00;99.90
72646;DHT22;60687;53.876;10.674;2024-03-22T12:15:06;11.00;99.90
72646;DHT22;60687;53.876;10.674;2024-03-22T12:57:24;10.70;99.90
72646;DHT22;60687;53.876;10.674;2024-03-22T13:07:28;10.70;99.90
72646;DHT22;60687;53.876;10.674;2024-03-22T13:17:31;10.70;99.90
72646;DHT22;60687;53.876;10.674;2024-03-22T13:27:35;10.60;99.90
72646;DHT22;60687;53.876;10.674;2024-03-22T13:37:42;10.70;99.90
72646;DHT22;60687;53.876;10.674;2024-03-22T13:47:44;10.60;99.90
72646;DHT22;60687;53.876;10.674;2024-03-22T13:57:48;10.70;99.90
72646;DHT22;60687;53.876;10.674;2024-03-22T14:07:50;10.60;99.90
72646;DHT22;60687;53.876;10.674;2024-03-22T14:17:54;10.60;99.90
72646;DHT22;60687;53.876;10.674;2024-03-22T14:27:58;10.50;99.90
72646;DHT22;60687;53.876;10.674;2024-03-22T14:38:02;10.50;99.90
72646;DHT22;60687;53.876;10.674;2024-03-22T14:48:05;10.50;99.90
72646;DHT22;60687;53.876;10.674;2024-03-22T14:58:09;10.50;99.90
72646;DHT22;60687;53.876;10.674;2024-03-22T15:08:12;10.30;99.90
72646;DHT22;60687;53.876;10.674;2024-03-22T15:18:16;10.30;99.90
72646;DHT22;60687;53.876;10.674;2024-03-22T15:28:18;10.40;99.90
72646;DHT22;60687;53.876;10.674;2024-03-22T15:38:23;10.30;99.90
72646;DHT22;60687;53.876;10.674;2024-03-22T15:48:26;10.30;99.90
72646;DHT22;60687;53.876;10.674;2024-03-22T15:58:32;10.30;99.90
72646;DHT22;60687;53.876;10.674;2024-03-22T16:08:35;10.30;99.90
72646;DHT22;60687;53.876;10.674;2024-03-22T16:18:40;10.30;99.90
72646;DHT22;60687;53.876;10.674;2024-03-22T16:28:42;10.30;99.90
72646;DHT22;60687;53.876;10.674;2024-03-22T16:38:48;10.20;99.90
72646;DHT22;60687;53.876;10.674;2024-03-22T16:48:51;10.10;99.90
72646;DHT22;60687;53.876;10.674;2024-03-22T16:58:55;10.10;99.90
72646;DHT22;60687;53.876;10.674;2024-03-22T17:08:58;10.00;99.90
72646;DHT22;60687;53.876;10.674;2024-03-22T17:19:06;10.00;99.90
72646;DHT22;60687;53.876;10.674;2024-03-22T17:29:08;9.90;99.90
72646;DHT22;60687;53.876;10.674;2024-03-22T17:39:15;9.90;99.90
72646;DHT22;60687;53.876;10.674;2024-03-22T17:49:18;9.70;99.90
72646;DHT22;60687;53.876;10.674;2024-03-22T17:59:23;9.70;99.90
72646;DHT22;60687;53.876;10.674;2024-03-22T18:09:29;9.60;99.90
72646;DHT22;60687;53.876;10.674;2024-03-22T18:19:34;9.50;99.90
72646;DHT22;60687;53.876;10.674;2024-03-22T18:29:37;9.50;99.90
72646;DHT22;60687;53.876;10.674;2024-03-22T18:39:41;9.40;99.90
72646;DHT22;60687;53.876;10.674;2024-03-22T18:49:44;9.30;99.90
72646;DHT22;60687;53.876;10.674;2024-03-22T18:59:47;9.30;99.90
72646;DHT22;60687;53.876;10.674;2024-03-22T19:09:51;9.30;99.90
72646;DHT22;60687;53.876;10.674;2024-03-22T19:19:55;9.20;99.90
72646;DHT22;60687;53.876;10.674;2024-03-22T19:29:58;9.10;99.90
72646;DHT22;60687;53.876;10.674;2024-03-22T19:40:02;9.10;99.90
72646;DHT22;60687;53.876;10.674;2024-03-22T19:50:06;9.00;99.90
72646;DHT22;60687;53.876;10.674;2024-03-22T20:00:11;8.90;99.90
72646;DHT22;60687;53.876;10.674;2024-03-22T20:10:17;8.90;99.90
72646;DHT22;60687;53.876;10.674;2024-03-22T20:20:20;8.80;99.90
72646;DHT22;60687;53.876;10.674;2024-03-22T20:30:24;8.80;99.90
